Hauptseite
METAR-TAF:

METAR-TAF

Flughäfen :

Flughafen Linz

Linz, Österreich

Breite: 48-14N, Länge: 014-11E, Höhe: 298 m

Beobachtung

Neuester Wetterbericht von vor 33 Minuten, um 06:20 UTC
Wind 4 kt aus West
Temperatur 12°C
Luftfeuchtigkeit 88%
Luftdruck 1023 hPa
Sichtweite 10 km oder mehr

METAR: LOWL 140620Z AUTO 27004KT 9999 NCD 12/10 Q1023 NOSIG

Zeit: 08:53 (06:53 UTC)

Prognose

Neuester Wetterbericht von vor 1 Stunde und 38 Minuten, um 05:15 UTC
Gültige Prognose vom 14 um 06 UTC bis 15 um 06 UTC
Wind 4 kt aus unterschiedlichen Richtungen
Sichtweite 10 km oder mehr
keine Wolken unter 1500 m und keine Kumulonimbus oder Gewitterwolken
Zeitweise
vom 14 um 09 UTC bis 14 um 16 UTC
Wind 10 kt aus West

TAF: LOWL 140515Z 1406/1506 VRB04KT CAVOK TX26/1414Z TN11/1406Z TEMPO 1409/1416 27010KT

Wetterbeobachtungen und Prognosen von mehr als 4000 Flughäfen (METAR und TAF Bericht).

Die verfügbaren Stationen werden durch gelbe und rote Markierungen auf der Karte dargestellt.

Führen Sie die Maus auf sie, um den Namen der Station zu sehen.

Darauf klicken, um die Beobachtung von Wetterbeobachtungen und Prognosen zu sehen.

Um die Karte zu ändern : klicken Sie auf den grünen Tasten mit einem schwarzen Kreuz Zum Vergrößern, auf den grünen Button mit einem Gedankenstrich zu verkleinern, oder auf die grünen Pfeile für benachbarte Karten.


METAR-TAF: